sensor_id;sensor_type;location;lat;lon;timestamp;temperature;humidity
26821;DHT22;37186;51.394;5.454;2023-12-29T00:01:39;12.60;83.50
26821;DHT22;37186;51.394;5.454;2023-12-29T00:04:40;12.60;83.60
26821;DHT22;37186;51.394;5.454;2023-12-29T00:07:40;12.60;83.70
26821;DHT22;37186;51.394;5.454;2023-12-29T00:10:41;12.70;83.60
26821;DHT22;37186;51.394;5.454;2023-12-29T00:13:41;12.70;83.60
26821;DHT22;37186;51.394;5.454;2023-12-29T00:16:42;12.70;83.50
26821;DHT22;37186;51.394;5.454;2023-12-29T00:19:44;12.60;83.60
26821;DHT22;37186;51.394;5.454;2023-12-29T00:22:44;12.60;83.70
26821;DHT22;37186;51.394;5.454;2023-12-29T00:25:45;12.60;83.60
26821;DHT22;37186;51.394;5.454;2023-12-29T00:28:45;12.70;83.40
26821;DHT22;37186;51.394;5.454;2023-12-29T00:31:46;12.60;83.60
26821;DHT22;37186;51.394;5.454;2023-12-29T00:34:47;12.60;83.60
26821;DHT22;37186;51.394;5.454;2023-12-29T00:37:47;12.60;83.70
26821;DHT22;37186;51.394;5.454;2023-12-29T00:40:48;12.60;83.50
26821;DHT22;37186;51.394;5.454;2023-12-29T00:43:48;12.70;83.60
26821;DHT22;37186;51.394;5.454;2023-12-29T00:46:50;12.60;83.60
26821;DHT22;37186;51.394;5.454;2023-12-29T00:49:50;12.70;83.50
26821;DHT22;37186;51.394;5.454;2023-12-29T00:52:51;12.60;83.40
26821;DHT22;37186;51.394;5.454;2023-12-29T00:55:51;12.70;83.70
26821;DHT22;37186;51.394;5.454;2023-12-29T00:58:52;12.60;83.50
26821;DHT22;37186;51.394;5.454;2023-12-29T01:01:52;12.60;83.70
26821;DHT22;37186;51.394;5.454;2023-12-29T01:04:53;12.70;83.60
26821;DHT22;37186;51.394;5.454;2023-12-29T01:07:54;12.70;84.00
26821;DHT22;37186;51.394;5.454;2023-12-29T01:10:55;12.60;84.10
26821;DHT22;37186;51.394;5.454;2023-12-29T01:13:56;12.60;84.10
26821;DHT22;37186;51.394;5.454;2023-12-29T01:16:56;12.60;84.20
26821;DHT22;37186;51.394;5.454;2023-12-29T01:19:57;12.60;84.20
26821;DHT22;37186;51.394;5.454;2023-12-29T01:22:58;12.60;84.30
26821;DHT22;37186;51.394;5.454;2023-12-29T01:25:58;12.60;84.40
26821;DHT22;37186;51.394;5.454;2023-12-29T01:28:59;12.60;84.50
26821;DHT22;37186;51.394;5.454;2023-12-29T01:32:00;12.50;84.60
26821;DHT22;37186;51.394;5.454;2023-12-29T01:35:00;12.50;84.70
26821;DHT22;37186;51.394;5.454;2023-12-29T01:38:02;12.50;84.70
26821;DHT22;37186;51.394;5.454;2023-12-29T01:41:03;12.50;84.80
26821;DHT22;37186;51.394;5.454;2023-12-29T01:44:19;12.50;84.70
26821;DHT22;37186;51.394;5.454;2023-12-29T01:47:20;12.50;84.90
26821;DHT22;37186;51.394;5.454;2023-12-29T01:50:22;12.40;84.70
26821;DHT22;37186;51.394;5.454;2023-12-29T01:53:23;12.40;85.00
26821;DHT22;37186;51.394;5.454;2023-12-29T01:56:25;12.40;84.90
26821;DHT22;37186;51.394;5.454;2023-12-29T01:59:27;12.40;85.00
26821;DHT22;37186;51.394;5.454;2023-12-29T02:02:28;12.40;84.90
26821;DHT22;37186;51.394;5.454;2023-12-29T02:05:29;12.40;84.90
26821;DHT22;37186;51.394;5.454;2023-12-29T02:08:31;12.30;85.00
26821;DHT22;37186;51.394;5.454;2023-12-29T02:11:32;12.30;85.30
26821;DHT22;37186;51.394;5.454;2023-12-29T02:14:32;12.40;85.40
26821;DHT22;37186;51.394;5.454;2023-12-29T02:17:40;12.30;85.30
26821;DHT22;37186;51.394;5.454;2023-12-29T02:20:42;12.30;85.20
26821;DHT22;37186;51.394;5.454;2023-12-29T02:23:42;12.30;85.30
26821;DHT22;37186;51.394;5.454;2023-12-29T02:26:46;12.30;85.40
26821;DHT22;37186;51.394;5.454;2023-12-29T02:30:24;12.30;85.40
26821;DHT22;37186;51.394;5.454;2023-12-29T02:33:27;12.30;85.40
26821;DHT22;37186;51.394;5.454;2023-12-29T02:36:29;12.20;85.50
26821;DHT22;37186;51.394;5.454;2023-12-29T02:39:30;12.30;85.50
26821;DHT22;37186;51.394;5.454;2023-12-29T02:42:30;12.30;85.50
26821;DHT22;37186;51.394;5.454;2023-12-29T02:45:31;12.20;85.50
26821;DHT22;37186;51.394;5.454;2023-12-29T02:48:31;12.30;85.60
26821;DHT22;37186;51.394;5.454;2023-12-29T02:51:32;12.20;85.60
26821;DHT22;37186;51.394;5.454;2023-12-29T02:54:32;12.20;85.60
26821;DHT22;37186;51.394;5.454;2023-12-29T02:57:33;12.30;85.50
26821;DHT22;37186;51.394;5.454;2023-12-29T03:00:33;12.20;85.50
26821;DHT22;37186;51.394;5.454;2023-12-29T03:03:34;12.20;85.50
26821;DHT22;37186;51.394;5.454;2023-12-29T03:06:35;12.30;85.50
26821;DHT22;37186;51.394;5.454;2023-12-29T03:09:35;12.30;85.30
26821;DHT22;37186;51.394;5.454;2023-12-29T03:12:36;12.30;85.30
26821;DHT22;37186;51.394;5.454;2023-12-29T03:15:36;12.30;85.30
26821;DHT22;37186;51.394;5.454;2023-12-29T03:18:37;12.30;85.20
26821;DHT22;37186;51.394;5.454;2023-12-29T03:21:40;12.30;85.00
26821;DHT22;37186;51.394;5.454;2023-12-29T03:24:41;12.30;85.00
26821;DHT22;37186;51.394;5.454;2023-12-29T03:27:42;12.30;85.20
26821;DHT22;37186;51.394;5.454;2023-12-29T03:30:43;12.30;85.00
26821;DHT22;37186;51.394;5.454;2023-12-29T03:33:43;12.30;85.00
26821;DHT22;37186;51.394;5.454;2023-12-29T03:36:44;12.30;85.00
26821;DHT22;37186;51.394;5.454;2023-12-29T03:39:44;12.30;84.90
26821;DHT22;37186;51.394;5.454;2023-12-29T03:42:45;12.20;85.10
26821;DHT22;37186;51.394;5.454;2023-12-29T03:45:45;12.20;85.90
26821;DHT22;37186;51.394;5.454;2023-12-29T03:48:46;12.30;85.00
26821;DHT22;37186;51.394;5.454;2023-12-29T03:51:47;12.20;84.90
26821;DHT22;37186;51.394;5.454;2023-12-29T03:54:48;12.40;84.80
26821;DHT22;37186;51.394;5.454;2023-12-29T03:57:48;12.30;84.70
26821;DHT22;37186;51.394;5.454;2023-12-29T04:00:49;12.30;84.80
26821;DHT22;37186;51.394;5.454;2023-12-29T04:03:49;12.40;84.80
26821;DHT22;37186;51.394;5.454;2023-12-29T04:06:50;12.30;84.70
26821;DHT22;37186;51.394;5.454;2023-12-29T04:09:50;12.30;84.40
26821;DHT22;37186;51.394;5.454;2023-12-29T04:12:51;12.30;84.90
26821;DHT22;37186;51.394;5.454;2023-12-29T04:15:51;12.30;84.70
26821;DHT22;37186;51.394;5.454;2023-12-29T04:18:52;12.30;84.80
26821;DHT22;37186;51.394;5.454;2023-12-29T04:21:52;12.30;84.80
26821;DHT22;37186;51.394;5.454;2023-12-29T04:24:53;12.30;84.70
26821;DHT22;37186;51.394;5.454;2023-12-29T04:27:53;12.30;84.30
26821;DHT22;37186;51.394;5.454;2023-12-29T04:30:54;12.40;84.70
26821;DHT22;37186;51.394;5.454;2023-12-29T04:33:54;12.40;84.50
26821;DHT22;37186;51.394;5.454;2023-12-29T04:36:55;12.40;84.30
26821;DHT22;37186;51.394;5.454;2023-12-29T04:39:55;12.40;84.20
26821;DHT22;37186;51.394;5.454;2023-12-29T04:42:56;12.30;84.30
26821;DHT22;37186;51.394;5.454;2023-12-29T04:45:56;12.30;84.50
26821;DHT22;37186;51.394;5.454;2023-12-29T04:48:57;12.30;85.00
26821;DHT22;37186;51.394;5.454;2023-12-29T04:51:58;12.30;84.40
26821;DHT22;37186;51.394;5.454;2023-12-29T04:54:58;12.30;84.50
26821;DHT22;37186;51.394;5.454;2023-12-29T04:57:59;12.30;84.20
26821;DHT22;37186;51.394;5.454;2023-12-29T05:00:59;12.30;84.20
26821;DHT22;37186;51.394;5.454;2023-12-29T05:04:00;12.40;84.20
26821;DHT22;37186;51.394;5.454;2023-12-29T05:07:00;12.30;84.30
26821;DHT22;37186;51.394;5.454;2023-12-29T05:10:01;12.30;83.90
26821;DHT22;37186;51.394;5.454;2023-12-29T05:13:02;12.30;84.20
26821;DHT22;37186;51.394;5.454;2023-12-29T05:16:02;12.30;84.30
26821;DHT22;37186;51.394;5.454;2023-12-29T05:19:04;12.30;84.30
26821;DHT22;37186;51.394;5.454;2023-12-29T05:22:04;12.30;84.20
26821;DHT22;37186;51.394;5.454;2023-12-29T05:25:05;12.30;84.20
26821;DHT22;37186;51.394;5.454;2023-12-29T05:28:06;12.30;84.40
26821;DHT22;37186;51.394;5.454;2023-12-29T05:31:06;12.30;84.50
26821;DHT22;37186;51.394;5.454;2023-12-29T05:34:07;12.30;84.40
26821;DHT22;37186;51.394;5.454;2023-12-29T05:37:07;12.30;84.40
26821;DHT22;37186;51.394;5.454;2023-12-29T05:40:08;12.30;84.20
26821;DHT22;37186;51.394;5.454;2023-12-29T05:43:09;12.30;84.20
26821;DHT22;37186;51.394;5.454;2023-12-29T05:46:10;12.30;84.30
26821;DHT22;37186;51.394;5.454;2023-12-29T05:49:14;12.30;84.40
26821;DHT22;37186;51.394;5.454;2023-12-29T05:52:14;12.30;84.20
26821;DHT22;37186;51.394;5.454;2023-12-29T05:55:15;12.30;84.40
26821;DHT22;37186;51.394;5.454;2023-12-29T05:58:16;12.30;84.50
26821;DHT22;37186;51.394;5.454;2023-12-29T06:01:16;12.30;84.50
26821;DHT22;37186;51.394;5.454;2023-12-29T06:04:17;12.30;84.40
26821;DHT22;37186;51.394;5.454;2023-12-29T06:07:18;12.30;84.40
26821;DHT22;37186;51.394;5.454;2023-12-29T06:10:19;12.30;84.50
26821;DHT22;37186;51.394;5.454;2023-12-29T06:13:19;12.30;84.60
26821;DHT22;37186;51.394;5.454;2023-12-29T06:16:20;12.30;84.40
26821;DHT22;37186;51.394;5.454;2023-12-29T06:19:21;12.30;84.40
26821;DHT22;37186;51.394;5.454;2023-12-29T06:22:21;12.30;84.50
26821;DHT22;37186;51.394;5.454;2023-12-29T06:25:22;12.30;84.40
26821;DHT22;37186;51.394;5.454;2023-12-29T06:28:23;12.30;84.70
26821;DHT22;37186;51.394;5.454;2023-12-29T06:31:23;12.30;84.60
26821;DHT22;37186;51.394;5.454;2023-12-29T06:34:25;12.30;84.70
26821;DHT22;37186;51.394;5.454;2023-12-29T06:37:25;12.30;84.70
26821;DHT22;37186;51.394;5.454;2023-12-29T06:40:26;12.30;84.70
26821;DHT22;37186;51.394;5.454;2023-12-29T06:43:26;12.30;84.90
26821;DHT22;37186;51.394;5.454;2023-12-29T06:46:27;12.30;84.90
26821;DHT22;37186;51.394;5.454;2023-12-29T06:49:28;12.30;85.00
26821;DHT22;37186;51.394;5.454;2023-12-29T06:52:28;12.20;85.00
26821;DHT22;37186;51.394;5.454;2023-12-29T06:55:34;12.30;85.10
26821;DHT22;37186;51.394;5.454;2023-12-29T06:58:34;12.30;85.10
26821;DHT22;37186;51.394;5.454;2023-12-29T07:01:38;12.30;85.20
26821;DHT22;37186;51.394;5.454;2023-12-29T07:04:42;12.30;85.10
26821;DHT22;37186;51.394;5.454;2023-12-29T07:07:43;12.30;85.20
26821;DHT22;37186;51.394;5.454;2023-12-29T07:10:43;12.30;85.00
26821;DHT22;37186;51.394;5.454;2023-12-29T07:13:44;12.30;85.20
26821;DHT22;37186;51.394;5.454;2023-12-29T07:16:45;12.30;85.20
26821;DHT22;37186;51.394;5.454;2023-12-29T07:19:45;12.30;86.10
26821;DHT22;37186;51.394;5.454;2023-12-29T07:22:46;12.30;85.30
26821;DHT22;37186;51.394;5.454;2023-12-29T07:25:47;12.30;85.30
26821;DHT22;37186;51.394;5.454;2023-12-29T07:28:48;12.30;85.30
26821;DHT22;37186;51.394;5.454;2023-12-29T07:31:48;12.30;85.30
26821;DHT22;37186;51.394;5.454;2023-12-29T07:34:49;12.30;85.30
26821;DHT22;37186;51.394;5.454;2023-12-29T07:37:50;12.30;85.30
26821;DHT22;37186;51.394;5.454;2023-12-29T07:40:51;12.30;85.30
26821;DHT22;37186;51.394;5.454;2023-12-29T07:43:51;12.30;85.30
26821;DHT22;37186;51.394;5.454;2023-12-29T07:46:52;12.30;85.50
26821;DHT22;37186;51.394;5.454;2023-12-29T07:49:52;12.30;85.50
26821;DHT22;37186;51.394;5.454;2023-12-29T07:52:53;12.30;85.40
26821;DHT22;37186;51.394;5.454;2023-12-29T07:55:53;12.30;85.70
26821;DHT22;37186;51.394;5.454;2023-12-29T07:58:55;12.30;85.50
26821;DHT22;37186;51.394;5.454;2023-12-29T08:01:55;12.30;85.80
26821;DHT22;37186;51.394;5.454;2023-12-29T08:04:57;12.30;85.80
26821;DHT22;37186;51.394;5.454;2023-12-29T08:07:58;12.30;85.80
26821;DHT22;37186;51.394;5.454;2023-12-29T08:10:58;12.20;85.80
26821;DHT22;37186;51.394;5.454;2023-12-29T08:14:00;12.20;85.80
26821;DHT22;37186;51.394;5.454;2023-12-29T08:17:01;12.30;85.90
26821;DHT22;37186;51.394;5.454;2023-12-29T08:20:02;12.30;85.90
26821;DHT22;37186;51.394;5.454;2023-12-29T08:23:04;12.30;86.10
26821;DHT22;37186;51.394;5.454;2023-12-29T08:26:04;12.30;86.20
26821;DHT22;37186;51.394;5.454;2023-12-29T08:29:05;12.30;86.00
26821;DHT22;37186;51.394;5.454;2023-12-29T08:32:07;12.30;86.10
26821;DHT22;37186;51.394;5.454;2023-12-29T08:35:08;12.30;86.20
26821;DHT22;37186;51.394;5.454;2023-12-29T08:38:09;12.30;86.20
26821;DHT22;37186;51.394;5.454;2023-12-29T08:41:09;12.30;86.20
26821;DHT22;37186;51.394;5.454;2023-12-29T08:44:10;12.30;86.00
26821;DHT22;37186;51.394;5.454;2023-12-29T08:47:10;12.20;86.10
26821;DHT22;37186;51.394;5.454;2023-12-29T08:50:11;12.20;86.20
26821;DHT22;37186;51.394;5.454;2023-12-29T08:53:12;12.30;86.10
26821;DHT22;37186;51.394;5.454;2023-12-29T08:56:12;12.30;86.30
26821;DHT22;37186;51.394;5.454;2023-12-29T08:59:14;12.30;86.10
26821;DHT22;37186;51.394;5.454;2023-12-29T09:02:14;12.20;86.40
26821;DHT22;37186;51.394;5.454;2023-12-29T09:05:15;12.20;86.50
26821;DHT22;37186;51.394;5.454;2023-12-29T09:08:15;12.20;86.40
26821;DHT22;37186;51.394;5.454;2023-12-29T09:11:16;12.20;86.40
26821;DHT22;37186;51.394;5.454;2023-12-29T09:14:16;12.20;86.40
26821;DHT22;37186;51.394;5.454;2023-12-29T09:17:17;12.20;86.60
26821;DHT22;37186;51.394;5.454;2023-12-29T09:20:17;12.20;86.60
26821;DHT22;37186;51.394;5.454;2023-12-29T09:23:18;12.30;86.70
26821;DHT22;37186;51.394;5.454;2023-12-29T09:26:19;12.30;86.60
26821;DHT22;37186;51.394;5.454;2023-12-29T09:29:19;12.20;86.60
26821;DHT22;37186;51.394;5.454;2023-12-29T09:32:20;12.20;86.80
26821;DHT22;37186;51.394;5.454;2023-12-29T09:35:20;12.20;86.60
26821;DHT22;37186;51.394;5.454;2023-12-29T09:38:21;12.20;86.70
26821;DHT22;37186;51.394;5.454;2023-12-29T09:41:24;12.20;86.90
26821;DHT22;37186;51.394;5.454;2023-12-29T09:44:27;12.20;86.80
26821;DHT22;37186;51.394;5.454;2023-12-29T09:47:31;12.20;86.90
26821;DHT22;37186;51.394;5.454;2023-12-29T09:50:34;12.30;86.80
26821;DHT22;37186;51.394;5.454;2023-12-29T09:53:36;12.30;87.00
26821;DHT22;37186;51.394;5.454;2023-12-29T09:56:38;12.30;87.10
26821;DHT22;37186;51.394;5.454;2023-12-29T09:59:40;12.30;86.90
26821;DHT22;37186;51.394;5.454;2023-12-29T10:02:41;12.30;86.90
26821;DHT22;37186;51.394;5.454;2023-12-29T10:05:44;12.30;86.80
26821;DHT22;37186;51.394;5.454;2023-12-29T10:08:49;12.20;86.80
26821;DHT22;37186;51.394;5.454;2023-12-29T10:11:50;12.20;86.80
26821;DHT22;37186;51.394;5.454;2023-12-29T10:15:05;12.30;86.70
26821;DHT22;37186;51.394;5.454;2023-12-29T10:18:18;12.30;86.70
26821;DHT22;37186;51.394;5.454;2023-12-29T10:21:28;12.30;86.80
26821;DHT22;37186;51.394;5.454;2023-12-29T10:24:29;12.30;86.80
26821;DHT22;37186;51.394;5.454;2023-12-29T10:27:30;12.30;86.80
26821;DHT22;37186;51.394;5.454;2023-12-29T10:30:30;12.30;86.90
26821;DHT22;37186;51.394;5.454;2023-12-29T10:33:31;12.30;86.70
26821;DHT22;37186;51.394;5.454;2023-12-29T10:36:46;12.30;86.90
26821;DHT22;37186;51.394;5.454;2023-12-29T10:39:56;12.30;86.80
26821;DHT22;37186;51.394;5.454;2023-12-29T10:42:57;12.40;86.80
26821;DHT22;37186;51.394;5.454;2023-12-29T10:46:08;12.30;86.80
26821;DHT22;37186;51.394;5.454;2023-12-29T10:49:10;12.30;86.90
26821;DHT22;37186;51.394;5.454;2023-12-29T10:52:15;12.30;87.00
26821;DHT22;37186;51.394;5.454;2023-12-29T10:55:15;12.30;87.00
26821;DHT22;37186;51.394;5.454;2023-12-29T10:58:16;12.40;86.90
26821;DHT22;37186;51.394;5.454;2023-12-29T11:01:18;12.40;87.00
26821;DHT22;37186;51.394;5.454;2023-12-29T11:04:22;12.40;87.00
26821;DHT22;37186;51.394;5.454;2023-12-29T11:07:37;12.40;87.10
26821;DHT22;37186;51.394;5.454;2023-12-29T11:10:38;12.40;87.90
26821;DHT22;37186;51.394;5.454;2023-12-29T11:13:38;12.50;87.00
26821;DHT22;37186;51.394;5.454;2023-12-29T11:16:41;12.50;87.10
26821;DHT22;37186;51.394;5.454;2023-12-29T11:19:45;12.50;87.00
26821;DHT22;37186;51.394;5.454;2023-12-29T11:22:47;12.50;86.90
26821;DHT22;37186;51.394;5.454;2023-12-29T11:25:47;12.50;87.00
26821;DHT22;37186;51.394;5.454;2023-12-29T11:28:49;12.50;87.00
26821;DHT22;37186;51.394;5.454;2023-12-29T11:31:51;12.50;87.00
26821;DHT22;37186;51.394;5.454;2023-12-29T11:35:02;12.50;87.00
26821;DHT22;37186;51.394;5.454;2023-12-29T11:45:36;12.60;86.90
26821;DHT22;37186;51.394;5.454;2023-12-29T11:48:56;12.60;86.70
26821;DHT22;37186;51.394;5.454;2023-12-29T11:52:03;12.60;87.00
26821;DHT22;37186;51.394;5.454;2023-12-29T11:55:14;12.60;86.70
26821;DHT22;37186;51.394;5.454;2023-12-29T11:58:25;12.60;86.90
26821;DHT22;37186;51.394;5.454;2023-12-29T12:01:35;12.60;86.90
26821;DHT22;37186;51.394;5.454;2023-12-29T12:04:43;12.60;86.90
26821;DHT22;37186;51.394;5.454;2023-12-29T12:10:45;12.60;86.90
26821;DHT22;37186;51.394;5.454;2023-12-29T12:13:46;12.60;87.00
26821;DHT22;37186;51.394;5.454;2023-12-29T12:16:48;12.60;87.30
26821;DHT22;37186;51.394;5.454;2023-12-29T12:20:04;12.60;87.10
26821;DHT22;37186;51.394;5.454;2023-12-29T12:23:17;12.60;87.50
26821;DHT22;37186;51.394;5.454;2023-12-29T12:26:19;12.60;87.20
26821;DHT22;37186;51.394;5.454;2023-12-29T12:29:21;12.60;87.30
26821;DHT22;37186;51.394;5.454;2023-12-29T12:32:22;12.60;87.50
26821;DHT22;37186;51.394;5.454;2023-12-29T12:35:22;12.60;87.30
26821;DHT22;37186;51.394;5.454;2023-12-29T12:38:23;12.60;87.50
26821;DHT22;37186;51.394;5.454;2023-12-29T12:41:25;12.60;87.50
26821;DHT22;37186;51.394;5.454;2023-12-29T12:44:29;12.60;87.80
26821;DHT22;37186;51.394;5.454;2023-12-29T12:47:36;12.70;87.70
26821;DHT22;37186;51.394;5.454;2023-12-29T12:50:41;12.70;87.90
26821;DHT22;37186;51.394;5.454;2023-12-29T12:53:42;12.70;87.70
26821;DHT22;37186;51.394;5.454;2023-12-29T12:56:45;12.70;87.70
26821;DHT22;37186;51.394;5.454;2023-12-29T12:59:47;12.70;87.70
26821;DHT22;37186;51.394;5.454;2023-12-29T13:02:47;12.70;87.70
26821;DHT22;37186;51.394;5.454;2023-12-29T13:05:48;12.70;87.80
26821;DHT22;37186;51.394;5.454;2023-12-29T13:08:50;12.70;87.90
26821;DHT22;37186;51.394;5.454;2023-12-29T13:12:10;12.70;87.70
26821;DHT22;37186;51.394;5.454;2023-12-29T13:15:11;12.70;87.70
26821;DHT22;37186;51.394;5.454;2023-12-29T13:18:11;12.70;87.70
26821;DHT22;37186;51.394;5.454;2023-12-29T13:21:12;12.70;87.70
26821;DHT22;37186;51.394;5.454;2023-12-29T13:24:17;12.70;87.80
26821;DHT22;37186;51.394;5.454;2023-12-29T13:27:18;12.70;87.70
26821;DHT22;37186;51.394;5.454;2023-12-29T13:30:19;12.70;87.70
26821;DHT22;37186;51.394;5.454;2023-12-29T13:33:37;12.80;87.70
26821;DHT22;37186;51.394;5.454;2023-12-29T13:36:59;12.80;87.60
26821;DHT22;37186;51.394;5.454;2023-12-29T13:43:12;12.80;87.60
26821;DHT22;37186;51.394;5.454;2023-12-29T13:46:16;12.80;87.70
26821;DHT22;37186;51.394;5.454;2023-12-29T13:49:19;12.80;87.50
26821;DHT22;37186;51.394;5.454;2023-12-29T13:52:19;12.80;87.50
26821;DHT22;37186;51.394;5.454;2023-12-29T13:55:22;12.80;87.50
26821;DHT22;37186;51.394;5.454;2023-12-29T13:58:23;12.80;87.30
26821;DHT22;37186;51.394;5.454;2023-12-29T14:01:24;12.80;87.40
26821;DHT22;37186;51.394;5.454;2023-12-29T14:04:24;12.80;87.40
26821;DHT22;37186;51.394;5.454;2023-12-29T14:07:25;12.80;87.40
26821;DHT22;37186;51.394;5.454;2023-12-29T14:10:30;12.80;87.40
26821;DHT22;37186;51.394;5.454;2023-12-29T14:13:31;12.80;87.30
26821;DHT22;37186;51.394;5.454;2023-12-29T14:16:38;12.90;87.40
26821;DHT22;37186;51.394;5.454;2023-12-29T14:19:39;12.90;87.30
26821;DHT22;37186;51.394;5.454;2023-12-29T14:22:41;12.90;87.20
26821;DHT22;37186;51.394;5.454;2023-12-29T14:25:42;12.90;87.00
26821;DHT22;37186;51.394;5.454;2023-12-29T14:28:42;12.80;87.20
26821;DHT22;37186;51.394;5.454;2023-12-29T14:31:44;12.80;87.30
26821;DHT22;37186;51.394;5.454;2023-12-29T14:34:45;12.80;87.30
26821;DHT22;37186;51.394;5.454;2023-12-29T14:37:51;12.80;87.40
26821;DHT22;37186;51.394;5.454;2023-12-29T14:40:51;12.80;87.40
26821;DHT22;37186;51.394;5.454;2023-12-29T14:43:53;12.80;87.30
26821;DHT22;37186;51.394;5.454;2023-12-29T14:46:53;12.80;87.40
26821;DHT22;37186;51.394;5.454;2023-12-29T14:49:55;12.80;87.40
26821;DHT22;37186;51.394;5.454;2023-12-29T14:52:55;12.90;87.40
26821;DHT22;37186;51.394;5.454;2023-12-29T14:55:56;12.90;87.40
26821;DHT22;37186;51.394;5.454;2023-12-29T14:58:56;12.80;87.30
26821;DHT22;37186;51.394;5.454;2023-12-29T15:01:57;12.80;87.40
26821;DHT22;37186;51.394;5.454;2023-12-29T15:04:57;12.90;87.30
26821;DHT22;37186;51.394;5.454;2023-12-29T15:07:58;12.90;87.30
26821;DHT22;37186;51.394;5.454;2023-12-29T15:10:58;12.90;87.20
26821;DHT22;37186;51.394;5.454;2023-12-29T15:13:59;12.90;87.20
26821;DHT22;37186;51.394;5.454;2023-12-29T15:16:59;12.80;87.10
26821;DHT22;37186;51.394;5.454;2023-12-29T15:20:00;12.80;87.20
26821;DHT22;37186;51.394;5.454;2023-12-29T15:23:00;12.80;87.20
26821;DHT22;37186;51.394;5.454;2023-12-29T15:26:02;12.80;87.10
26821;DHT22;37186;51.394;5.454;2023-12-29T15:29:03;12.80;87.10
26821;DHT22;37186;51.394;5.454;2023-12-29T15:32:04;12.80;87.20
26821;DHT22;37186;51.394;5.454;2023-12-29T15:35:05;12.80;87.20
26821;DHT22;37186;51.394;5.454;2023-12-29T15:38:07;12.80;87.20
26821;DHT22;37186;51.394;5.454;2023-12-29T15:41:08;12.80;87.20
26821;DHT22;37186;51.394;5.454;2023-12-29T15:44:09;12.80;87.20
26821;DHT22;37186;51.394;5.454;2023-12-29T15:47:09;12.80;87.10
26821;DHT22;37186;51.394;5.454;2023-12-29T15:50:10;12.80;87.10
26821;DHT22;37186;51.394;5.454;2023-12-29T15:53:10;12.80;87.20
26821;DHT22;37186;51.394;5.454;2023-12-29T15:56:17;12.80;87.20
26821;DHT22;37186;51.394;5.454;2023-12-29T15:59:21;12.80;87.10
26821;DHT22;37186;51.394;5.454;2023-12-29T16:02:21;12.80;87.20
26821;DHT22;37186;51.394;5.454;2023-12-29T16:05:22;12.70;87.30
26821;DHT22;37186;51.394;5.454;2023-12-29T16:08:22;12.70;87.20
26821;DHT22;37186;51.394;5.454;2023-12-29T16:11:26;12.70;87.10
26821;DHT22;37186;51.394;5.454;2023-12-29T16:14:26;12.70;87.40
26821;DHT22;37186;51.394;5.454;2023-12-29T16:17:28;12.70;87.20
26821;DHT22;37186;51.394;5.454;2023-12-29T16:20:29;12.70;87.20
26821;DHT22;37186;51.394;5.454;2023-12-29T16:23:29;12.70;87.30
26821;DHT22;37186;51.394;5.454;2023-12-29T16:26:30;12.70;87.30
26821;DHT22;37186;51.394;5.454;2023-12-29T16:29:30;12.70;87.40
26821;DHT22;37186;51.394;5.454;2023-12-29T16:32:31;12.70;87.40
26821;DHT22;37186;51.394;5.454;2023-12-29T16:35:33;12.70;87.50
26821;DHT22;37186;51.394;5.454;2023-12-29T16:38:33;12.70;87.30
26821;DHT22;37186;51.394;5.454;2023-12-29T16:41:34;12.70;87.50
26821;DHT22;37186;51.394;5.454;2023-12-29T16:44:34;12.70;87.50
26821;DHT22;37186;51.394;5.454;2023-12-29T16:47:35;12.70;87.70
26821;DHT22;37186;51.394;5.454;2023-12-29T16:50:35;12.70;87.40
26821;DHT22;37186;51.394;5.454;2023-12-29T16:53:37;12.70;87.50
26821;DHT22;37186;51.394;5.454;2023-12-29T16:56:38;12.70;87.50
26821;DHT22;37186;51.394;5.454;2023-12-29T16:59:39;12.60;87.50
26821;DHT22;37186;51.394;5.454;2023-12-29T17:02:39;12.70;87.50
26821;DHT22;37186;51.394;5.454;2023-12-29T17:05:40;12.70;87.50
26821;DHT22;37186;51.394;5.454;2023-12-29T17:08:41;12.60;87.60
26821;DHT22;37186;51.394;5.454;2023-12-29T17:11:42;12.60;87.60
26821;DHT22;37186;51.394;5.454;2023-12-29T17:14:43;12.60;87.70
26821;DHT22;37186;51.394;5.454;2023-12-29T17:17:44;12.60;87.80
26821;DHT22;37186;51.394;5.454;2023-12-29T17:20:44;12.60;87.60
26821;DHT22;37186;51.394;5.454;2023-12-29T17:23:45;12.60;87.90
26821;DHT22;37186;51.394;5.454;2023-12-29T17:26:46;12.60;87.70
26821;DHT22;37186;51.394;5.454;2023-12-29T17:29:46;12.60;87.90
26821;DHT22;37186;51.394;5.454;2023-12-29T17:32:47;12.60;88.00
26821;DHT22;37186;51.394;5.454;2023-12-29T17:35:47;12.50;87.80
26821;DHT22;37186;51.394;5.454;2023-12-29T17:38:48;12.60;88.00
26821;DHT22;37186;51.394;5.454;2023-12-29T17:41:48;12.50;88.00
26821;DHT22;37186;51.394;5.454;2023-12-29T17:44:49;12.50;87.90
26821;DHT22;37186;51.394;5.454;2023-12-29T17:47:49;12.50;87.70
26821;DHT22;37186;51.394;5.454;2023-12-29T17:50:50;12.50;87.70
26821;DHT22;37186;51.394;5.454;2023-12-29T17:53:50;12.50;87.60
26821;DHT22;37186;51.394;5.454;2023-12-29T17:56:51;12.50;87.60
26821;DHT22;37186;51.394;5.454;2023-12-29T17:59:52;12.50;87.60
26821;DHT22;37186;51.394;5.454;2023-12-29T18:02:52;12.50;87.60
26821;DHT22;37186;51.394;5.454;2023-12-29T18:05:53;12.40;87.60
26821;DHT22;37186;51.394;5.454;2023-12-29T18:08:56;12.50;87.70
26821;DHT22;37186;51.394;5.454;2023-12-29T18:11:56;12.40;87.50
26821;DHT22;37186;51.394;5.454;2023-12-29T18:14:57;12.40;87.50
26821;DHT22;37186;51.394;5.454;2023-12-29T18:17:57;12.40;87.50
26821;DHT22;37186;51.394;5.454;2023-12-29T18:20:58;12.40;87.50
26821;DHT22;37186;51.394;5.454;2023-12-29T18:23:58;12.40;87.60
26821;DHT22;37186;51.394;5.454;2023-12-29T18:26:59;12.40;87.70
26821;DHT22;37186;51.394;5.454;2023-12-29T18:30:00;12.40;87.50
26821;DHT22;37186;51.394;5.454;2023-12-29T18:33:01;12.40;87.70
26821;DHT22;37186;51.394;5.454;2023-12-29T18:36:06;12.40;87.60
26821;DHT22;37186;51.394;5.454;2023-12-29T18:39:07;12.40;87.60
26821;DHT22;37186;51.394;5.454;2023-12-29T18:42:08;12.40;87.60
26821;DHT22;37186;51.394;5.454;2023-12-29T18:45:09;12.40;87.60
26821;DHT22;37186;51.394;5.454;2023-12-29T18:48:10;12.40;87.20
26821;DHT22;37186;51.394;5.454;2023-12-29T18:51:10;12.40;86.80
26821;DHT22;37186;51.394;5.454;2023-12-29T18:54:11;12.30;86.30
26821;DHT22;37186;51.394;5.454;2023-12-29T18:57:15;12.30;86.40
26821;DHT22;37186;51.394;5.454;2023-12-29T19:00:16;12.30;86.60
26821;DHT22;37186;51.394;5.454;2023-12-29T19:03:16;12.20;86.60
26821;DHT22;37186;51.394;5.454;2023-12-29T19:06:24;12.20;86.60
26821;DHT22;37186;51.394;5.454;2023-12-29T19:09:25;12.20;86.70
26821;DHT22;37186;51.394;5.454;2023-12-29T19:12:26;12.20;86.50
26821;DHT22;37186;51.394;5.454;2023-12-29T19:15:26;12.20;86.40
26821;DHT22;37186;51.394;5.454;2023-12-29T19:18:27;12.20;86.70
26821;DHT22;37186;51.394;5.454;2023-12-29T19:21:28;12.20;86.70